createdAt,value
2017-10-22T00:00:06.771Z,0
2017-10-22T00:01:16.420Z,0
2017-10-22T00:02:26.718Z,0
2017-10-22T00:03:37.025Z,0
2017-10-22T00:04:47.344Z,0
2017-10-22T00:05:57.899Z,0
2017-10-22T00:07:07.867Z,0
2017-10-22T00:08:18.191Z,0
2017-10-22T00:09:27.838Z,0
2017-10-22T00:10:38.147Z,0
2017-10-22T00:11:48.373Z,0
2017-10-22T00:12:58.368Z,0
2017-10-22T00:14:08.665Z,0
2017-10-22T00:15:18.632Z,0
2017-10-22T00:16:28.937Z,0
2017-10-22T00:17:39.488Z,0
2017-10-22T00:18:49.462Z,0
2017-10-22T00:19:59.759Z,0
2017-10-22T00:21:09.400Z,0
2017-10-22T00:22:19.705Z,0
2017-10-22T00:23:30.243Z,0
2017-10-22T00:24:40.546Z,0
2017-10-22T00:25:50.864Z,0
2017-10-22T00:27:01.154Z,0
2017-10-22T00:28:11.116Z,0
2017-10-22T00:29:21.666Z,0
2017-10-22T00:30:31.979Z,0
2017-10-22T00:31:42.277Z,0
2017-10-22T00:32:52.582Z,0
2017-10-22T00:34:02.885Z,0
2017-10-22T00:35:13.452Z,0
2017-10-22T00:36:23.754Z,0
2017-10-22T00:37:33.726Z,0
2017-10-22T00:38:43.695Z,0
2017-10-22T00:39:54.019Z,0
2017-10-22T00:41:04.557Z,0
2017-10-22T00:42:14.530Z,0
2017-10-22T00:43:24.846Z,0
2017-10-22T00:44:35.148Z,0
2017-10-22T00:45:45.450Z,0
2017-10-22T00:46:55.670Z,0
2017-10-22T00:48:05.655Z,0
2017-10-22T00:49:15.631Z,0
2017-10-22T00:50:25.931Z,0
2017-10-22T00:51:36.236Z,0
2017-10-22T00:52:46.776Z,0
2017-10-22T00:53:57.063Z,0
2017-10-22T00:55:07.371Z,0
2017-10-22T00:56:17.672Z,0
2017-10-22T00:57:27.967Z,0
2017-10-22T00:58:38.518Z,0
2017-10-22T00:59:48.163Z,0
2017-10-22T01:00:58.470Z,0
2017-10-22T01:02:08.774Z,0
2017-10-22T01:03:19.083Z,0
2017-10-22T01:04:29.636Z,0
2017-10-22T01:05:39.931Z,0
2017-10-22T01:06:50.225Z,0
2017-10-22T01:08:00.537Z,0
2017-10-22T01:09:10.847Z,0
2017-10-22T01:10:21.443Z,0
2017-10-22T01:11:31.722Z,0
2017-10-22T01:12:41.364Z,0
2017-10-22T01:13:51.665Z,0
2017-10-22T01:15:01.634Z,0
2017-10-22T01:16:12.222Z,0
2017-10-22T01:17:22.531Z,0
2017-10-22T01:18:32.175Z,0
2017-10-22T01:19:42.490Z,0
2017-10-22T01:20:52.803Z,0
2017-10-22T01:22:03.020Z,0
2017-10-22T01:23:12.978Z,0
2017-10-22T01:24:22.966Z,0
2017-10-22T01:25:33.257Z,0
2017-10-22T01:26:43.561Z,0
2017-10-22T01:27:53.788Z,0
2017-10-22T01:29:04.080Z,0
2017-10-22T01:30:14.412Z,0
2017-10-22T01:31:24.718Z,0
2017-10-22T01:32:34.686Z,0
2017-10-22T01:33:45.240Z,0
2017-10-22T01:34:55.194Z,0
2017-10-22T01:36:05.524Z,0
2017-10-22T01:37:15.165Z,0
2017-10-22T01:38:25.473Z,0
2017-10-22T01:39:36.032Z,0
2017-10-22T01:40:46.338Z,0
2017-10-22T01:41:56.630Z,0
2017-10-22T01:43:06.919Z,0
2017-10-22T01:44:17.247Z,0
2017-10-22T01:45:27.466Z,0
2017-10-22T01:46:37.444Z,0
2017-10-22T01:47:47.730Z,0
2017-10-22T01:48:57.695Z,0
2017-10-22T01:50:07.991Z,0
2017-10-22T01:51:18.535Z,0
2017-10-22T01:52:28.846Z,0
2017-10-22T01:53:38.815Z,0
2017-10-22T01:54:49.108Z,0
2017-10-22T01:55:59.407Z,0
2017-10-22T01:57:09.947Z,0
2017-10-22T01:58:20.248Z,0
2017-10-22T01:59:30.544Z,0
2017-10-22T02:00:40.850Z,0
2017-10-22T02:01:51.164Z,0
2017-10-22T02:03:01.388Z,0
2017-10-22T02:04:11.684Z,0
2017-10-22T02:05:21.651Z,0
2017-10-22T02:06:31.284Z,0
2017-10-22T02:07:41.242Z,0
2017-10-22T02:08:51.804Z,0
2017-10-22T02:10:02.102Z,0
2017-10-22T02:11:12.386Z,0
2017-10-22T02:12:22.697Z,0
2017-10-22T02:13:32.991Z,0
2017-10-22T02:14:43.560Z,0
2017-10-22T02:15:53.873Z,0
2017-10-22T02:17:04.167Z,0
2017-10-22T02:18:14.135Z,0
2017-10-22T02:19:24.099Z,0
2017-10-22T02:20:34.350Z,0
2017-10-22T02:21:44.662Z,0
2017-10-22T02:22:54.639Z,0
2017-10-22T02:24:04.285Z,0
2017-10-22T02:25:14.581Z,0
2017-10-22T02:26:25.122Z,0
2017-10-22T02:27:35.428Z,0
2017-10-22T02:28:45.729Z,0
2017-10-22T02:29:56.033Z,0
2017-10-22T02:31:06.005Z,0
2017-10-22T02:32:16.235Z,0
2017-10-22T02:33:26.218Z,0
2017-10-22T02:34:36.529Z,0
2017-10-22T02:35:46.834Z,0
2017-10-22T02:36:57.133Z,0
2017-10-22T02:38:07.733Z,0
2017-10-22T02:39:18.031Z,0
2017-10-22T02:40:28.334Z,0
2017-10-22T02:41:37.984Z,0
2017-10-22T02:42:48.279Z,0
2017-10-22T02:43:58.508Z,0
2017-10-22T02:45:08.804Z,0
2017-10-22T02:46:19.109Z,0
2017-10-22T02:47:29.416Z,0
2017-10-22T02:48:39.732Z,0
2017-10-22T02:49:50.276Z,0
2017-10-22T02:51:00.582Z,0
2017-10-22T02:52:10.877Z,0
2017-10-22T02:53:21.172Z,0
2017-10-22T02:54:30.811Z,0
2017-10-22T02:55:41.362Z,0
2017-10-22T02:56:51.667Z,0
2017-10-22T02:58:01.959Z,0
2017-10-22T02:59:12.251Z,0
2017-10-22T03:00:21.577Z,0
2017-10-22T03:01:32.125Z,0
2017-10-22T03:02:42.096Z,0
2017-10-22T03:03:52.384Z,0
2017-10-22T03:05:02.683Z,0
2017-10-22T03:06:12.660Z,0
2017-10-22T03:07:23.196Z,0
2017-10-22T03:08:33.491Z,0
2017-10-22T03:09:43.783Z,0
2017-10-22T03:10:54.068Z,0
2017-10-22T03:12:04.360Z,0
2017-10-22T03:13:14.923Z,0
2017-10-22T03:14:24.906Z,0
2017-10-22T03:15:35.211Z,0
2017-10-22T03:16:45.519Z,0
2017-10-22T03:17:55.493Z,0
2017-10-22T03:19:05.714Z,0
2017-10-22T03:20:16.016Z,0
2017-10-22T03:21:25.975Z,0
2017-10-22T03:22:36.272Z,0
2017-10-22T03:23:46.578Z,0
2017-10-22T03:24:56.800Z,0
2017-10-22T03:26:07.092Z,0
2017-10-22T03:27:17.389Z,0
2017-10-22T03:28:27.684Z,0
2017-10-22T03:29:37.657Z,0
2017-10-22T03:30:48.208Z,0
2017-10-22T03:31:58.182Z,0
2017-10-22T03:33:08.485Z,0
2017-10-22T03:34:17.814Z,0
2017-10-22T03:35:28.130Z,0
2017-10-22T03:36:38.349Z,0
2017-10-22T03:37:48.642Z,0
2017-10-22T03:38:58.926Z,0
2017-10-22T03:40:09.217Z,0
2017-10-22T03:41:19.189Z,0
2017-10-22T03:42:29.734Z,0
2017-10-22T03:43:40.026Z,0
2017-10-22T03:44:50.325Z,0
2017-10-22T03:46:00.616Z,0
2017-10-22T03:47:10.580Z,0
2017-10-22T03:48:20.466Z,0
2017-10-22T03:49:30.764Z,0
2017-10-22T03:50:41.054Z,0
2017-10-22T03:51:51.017Z,0
2017-10-22T03:53:01.314Z,0
2017-10-22T03:54:11.536Z,0
2017-10-22T03:55:21.502Z,0
2017-10-22T03:56:31.797Z,0
2017-10-22T03:57:41.775Z,0
2017-10-22T03:58:52.062Z,0
2017-10-22T04:00:02.628Z,0
2017-10-22T04:01:12.603Z,0
2017-10-22T04:02:22.900Z,0
2017-10-22T04:03:32.881Z,0
2017-10-22T04:04:43.184Z,0
2017-10-22T04:05:53.405Z,0
2017-10-22T04:07:03.709Z,0
2017-10-22T04:08:13.677Z,0
2017-10-22T04:09:23.966Z,0
2017-10-22T04:10:34.260Z,0
2017-10-22T04:11:44.809Z,0
2017-10-22T04:12:55.098Z,0
2017-10-22T04:14:05.412Z,0
2017-10-22T04:15:15.388Z,0
2017-10-22T04:16:25.684Z,0
2017-10-22T04:17:36.232Z,0
2017-10-22T04:18:46.547Z,0
2017-10-22T04:19:56.843Z,0
2017-10-22T04:21:06.811Z,0
2017-10-22T04:22:17.090Z,0
2017-10-22T04:23:27.633Z,0
2017-10-22T04:24:37.925Z,0
2017-10-22T04:25:47.895Z,0
2017-10-22T04:26:57.856Z,0
2017-10-22T04:28:07.817Z,0
2017-10-22T04:29:18.367Z,0
2017-10-22T04:30:28.326Z,0
2017-10-22T04:31:38.623Z,0
2017-10-22T04:32:48.914Z,0
2017-10-22T04:33:59.230Z,0
2017-10-22T04:35:09.791Z,0
2017-10-22T04:36:19.773Z,0
2017-10-22T04:37:29.734Z,0
2017-10-22T04:38:40.034Z,0
2017-10-22T04:39:50.329Z,0
2017-10-22T04:41:00.238Z,0
2017-10-22T04:42:10.528Z,0
2017-10-22T04:43:20.489Z,0
2017-10-22T04:44:30.779Z,0
2017-10-22T04:45:40.803Z,0
2017-10-22T04:46:51.361Z,0
2017-10-22T04:48:01.005Z,0
2017-10-22T04:49:11.334Z,0
2017-10-22T04:50:21.633Z,0
2017-10-22T04:51:31.945Z,0
2017-10-22T04:52:42.506Z,0
2017-10-22T04:53:52.828Z,0
2017-10-22T04:55:02.466Z,0
2017-10-22T04:56:12.764Z,0
2017-10-22T04:57:22.741Z,0
2017-10-22T04:58:32.956Z,0
2017-10-22T04:59:42.586Z,0
2017-10-22T05:00:52.885Z,0
2017-10-22T05:02:03.193Z,0
2017-10-22T05:03:13.491Z,0
2017-10-22T05:04:24.025Z,0
2017-10-22T05:05:33.985Z,0
2017-10-22T05:06:44.287Z,0
2017-10-22T05:07:54.586Z,0
2017-10-22T05:09:04.883Z,0
2017-10-22T05:10:15.443Z,0
2017-10-22T05:11:25.737Z,0
2017-10-22T05:12:36.034Z,0
2017-10-22T05:13:46.009Z,0
2017-10-22T05:14:55.976Z,0
2017-10-22T05:16:06.518Z,0
2017-10-22T05:17:16.822Z,0
2017-10-22T05:18:27.109Z,0
2017-10-22T05:19:37.402Z,0
2017-10-22T05:20:47.698Z,0
2017-10-22T05:21:58.247Z,0
2017-10-22T05:23:08.541Z,0
2017-10-22T05:24:18.827Z,0
2017-10-22T05:25:29.125Z,0
2017-10-22T05:26:39.423Z,0
2017-10-22T05:27:49.317Z,0
2017-10-22T05:28:59.620Z,0
2017-10-22T05:30:09.910Z,0
2017-10-22T05:31:19.547Z,0
2017-10-22T05:32:29.530Z,0
2017-10-22T05:33:39.097Z,0
2017-10-22T05:34:48.740Z,0
2017-10-22T05:35:59.018Z,0
2017-10-22T05:37:08.985Z,0
2017-10-22T05:38:19.287Z,0
2017-10-22T05:39:29.831Z,0
2017-10-22T05:40:39.802Z,0
2017-10-22T05:41:50.091Z,0
2017-10-22T05:43:00.060Z,0
2017-10-22T05:44:10.027Z,0
2017-10-22T05:45:20.565Z,0
2017-10-22T05:46:30.857Z,0
2017-10-22T05:47:41.140Z,0
2017-10-22T05:48:51.430Z,0
2017-10-22T05:50:01.738Z,0
2017-10-22T05:51:12.306Z,0
2017-10-22T05:52:22.599Z,0
2017-10-22T05:53:32.926Z,5
2017-10-22T05:54:43.222Z,5
2017-10-22T05:55:53.531Z,5
2017-10-22T05:57:04.136Z,5
2017-10-22T05:58:14.453Z,5
2017-10-22T05:59:24.753Z,5
2017-10-22T06:00:34.726Z,5
2017-10-22T06:01:45.020Z,10
2017-10-22T06:02:55.232Z,10
2017-10-22T06:04:05.541Z,10
2017-10-22T06:05:15.518Z,10
2017-10-22T06:06:25.810Z,15
2017-10-22T06:07:35.784Z,15
2017-10-22T06:08:45.683Z,20
2017-10-22T06:09:55.995Z,25
2017-10-22T06:11:05.958Z,25
2017-10-22T06:12:16.353Z,30
2017-10-22T06:13:26.654Z,30
2017-10-22T06:14:37.251Z,35
2017-10-22T06:15:47.542Z,35
2017-10-22T06:16:57.520Z,40
2017-10-22T06:18:07.501Z,40
2017-10-22T06:19:17.797Z,45
2017-10-22T06:20:28.334Z,50
2017-10-22T06:21:38.618Z,55
2017-10-22T06:22:48.592Z,55
2017-10-22T06:23:58.919Z,60
2017-10-22T06:25:08.885Z,65
2017-10-22T06:26:19.104Z,65
2017-10-22T06:27:29.392Z,70
2017-10-22T06:28:39.370Z,70
2017-10-22T06:29:49.669Z,70
2017-10-22T06:30:59.960Z,70
2017-10-22T06:32:10.526Z,70
2017-10-22T06:33:20.818Z,65
2017-10-22T06:34:31.119Z,65
2017-10-22T06:35:41.409Z,60
2017-10-22T06:36:51.710Z,60
2017-10-22T06:38:01.941Z,65
2017-10-22T06:39:11.914Z,65
2017-10-22T06:40:22.200Z,65
2017-10-22T06:41:32.497Z,65
2017-10-22T06:42:42.782Z,65
2017-10-22T06:43:53.003Z,60
2017-10-22T06:45:02.981Z,60
2017-10-22T06:46:12.943Z,65
2017-10-22T06:47:23.232Z,65
2017-10-22T06:48:33.535Z,60
2017-10-22T06:49:43.753Z,55
2017-10-22T06:50:53.746Z,55
2017-10-22T06:52:04.048Z,55
2017-10-22T06:53:14.343Z,65
2017-10-22T06:54:24.641Z,75
2017-10-22T06:55:35.187Z,85
2017-10-22T06:56:45.475Z,85
2017-10-22T06:57:55.436Z,90
2017-10-22T06:59:05.406Z,95
2017-10-22T07:00:15.693Z,95
2017-10-22T07:01:26.290Z,105
2017-10-22T07:02:36.605Z,115
2017-10-22T07:03:46.892Z,125
2017-10-22T07:04:57.188Z,120
2017-10-22T07:06:07.497Z,105
2017-10-22T07:07:18.046Z,115
2017-10-22T07:08:28.350Z,155
2017-10-22T07:09:38.640Z,225
2017-10-22T07:10:48.931Z,235
2017-10-22T07:11:58.899Z,210
2017-10-22T07:13:09.443Z,190
2017-10-22T07:14:19.737Z,180
2017-10-22T07:15:29.384Z,180
2017-10-22T07:16:39.671Z,190
2017-10-22T07:17:49.644Z,205
2017-10-22T07:19:00.195Z,220
2017-10-22T07:20:10.515Z,240
2017-10-22T07:21:20.483Z,245
2017-10-22T07:22:30.450Z,245
2017-10-22T07:23:40.754Z,235
2017-10-22T07:24:50.972Z,235
2017-10-22T07:26:01.265Z,245
2017-10-22T07:27:11.562Z,245
2017-10-22T07:28:21.864Z,250
2017-10-22T07:29:32.173Z,250
2017-10-22T07:30:42.061Z,260
2017-10-22T07:31:52.363Z,255
2017-10-22T07:33:02.668Z,260
2017-10-22T07:34:12.649Z,260
2017-10-22T07:35:21.965Z,260
2017-10-22T07:36:32.254Z,260
2017-10-22T07:37:42.564Z,265
2017-10-22T07:38:52.868Z,265
2017-10-22T07:40:03.184Z,270
2017-10-22T07:41:12.846Z,275
2017-10-22T07:42:23.450Z,275
2017-10-22T07:43:33.744Z,280
2017-10-22T07:44:44.056Z,295
2017-10-22T07:45:54.364Z,375
2017-10-22T07:47:04.674Z,385
2017-10-22T07:48:15.235Z,300
2017-10-22T07:49:25.543Z,220
2017-10-22T07:50:35.189Z,215
2017-10-22T07:51:44.826Z,265
2017-10-22T07:52:54.792Z,240
2017-10-22T07:54:05.346Z,220
2017-10-22T07:55:15.641Z,205
2017-10-22T07:56:26.191Z,180
2017-10-22T07:57:36.526Z,175
2017-10-22T07:58:46.824Z,180
2017-10-22T07:59:57.374Z,195
2017-10-22T08:01:07.717Z,215
2017-10-22T08:02:18.011Z,240
2017-10-22T08:03:28.336Z,260
2017-10-22T08:04:38.635Z,280
2017-10-22T08:05:49.180Z,300
2017-10-22T08:06:59.151Z,310
2017-10-22T08:08:09.451Z,305
2017-10-22T08:09:19.432Z,300
2017-10-22T08:10:29.739Z,295
2017-10-22T08:11:40.293Z,300
2017-10-22T08:12:50.593Z,300
2017-10-22T08:14:00.897Z,300
2017-10-22T08:15:10.876Z,305
2017-10-22T08:16:20.847Z,300
2017-10-22T08:17:31.068Z,305
2017-10-22T08:18:41.367Z,305
2017-10-22T08:19:51.338Z,310
2017-10-22T08:21:01.871Z,315
2017-10-22T08:22:11.838Z,320
2017-10-22T08:23:22.423Z,325
2017-10-22T08:24:32.391Z,330
2017-10-22T08:25:42.699Z,330
2017-10-22T08:26:53.007Z,325
2017-10-22T08:28:02.990Z,325
2017-10-22T08:29:13.538Z,330
2017-10-22T08:30:23.846Z,400
2017-10-22T08:31:33.820Z,530
2017-10-22T08:32:43.802Z,560
2017-10-22T08:33:53.774Z,595
2017-10-22T08:35:03.677Z,495
2017-10-22T08:36:13.634Z,455
2017-10-22T08:37:23.936Z,520
2017-10-22T08:38:33.913Z,470
2017-10-22T08:39:44.232Z,425
2017-10-22T08:40:54.773Z,460
2017-10-22T08:42:04.441Z,435
2017-10-22T08:43:14.748Z,420
2017-10-22T08:44:24.731Z,405
2017-10-22T08:45:35.039Z,365
2017-10-22T08:46:45.585Z,350
2017-10-22T08:47:55.899Z,350
2017-10-22T08:49:06.209Z,365
2017-10-22T08:50:16.517Z,385
2017-10-22T08:51:26.488Z,395
2017-10-22T08:52:36.388Z,405
2017-10-22T08:53:46.691Z,405
2017-10-22T08:54:56.987Z,400
2017-10-22T08:56:07.300Z,400
2017-10-22T08:57:17.598Z,405
2017-10-22T08:58:28.155Z,420
2017-10-22T08:59:38.496Z,455
2017-10-22T09:00:48.829Z,800
2017-10-22T09:01:59.155Z,900
2017-10-22T09:03:09.451Z,1230
2017-10-22T09:04:20.021Z,1445
2017-10-22T09:05:30.339Z,1435
2017-10-22T09:06:40.318Z,1445
2017-10-22T09:07:50.624Z,1295
2017-10-22T09:09:00.606Z,1270
2017-10-22T09:10:10.831Z,575
2017-10-22T09:11:20.824Z,440
2017-10-22T09:12:31.136Z,435
2017-10-22T09:13:41.447Z,435
2017-10-22T09:14:51.422Z,535
2017-10-22T09:16:01.652Z,520
2017-10-22T09:17:11.294Z,750
2017-10-22T09:18:21.595Z,1140
2017-10-22T09:19:31.910Z,455
2017-10-22T09:20:41.881Z,365
2017-10-22T09:21:52.103Z,335
2017-10-22T09:23:02.402Z,345
2017-10-22T09:24:12.392Z,375
2017-10-22T09:25:22.381Z,380
2017-10-22T09:26:32.699Z,490
2017-10-22T09:27:42.930Z,480
2017-10-22T09:28:53.234Z,730
2017-10-22T09:30:03.562Z,1270
2017-10-22T09:31:13.872Z,1635
2017-10-22T09:32:24.162Z,1565
2017-10-22T09:33:34.066Z,1600
2017-10-22T09:34:44.358Z,1685
2017-10-22T09:35:54.003Z,1600
2017-10-22T09:37:04.309Z,1575
2017-10-22T09:38:14.487Z,1605
2017-10-22T09:39:24.708Z,1665
2017-10-22T09:40:35.008Z,1675
2017-10-22T09:41:45.015Z,1650
2017-10-22T09:42:55.323Z,1490
2017-10-22T09:44:05.330Z,1565
2017-10-22T09:45:15.909Z,1380
2017-10-22T09:46:26.213Z,1360
2017-10-22T09:47:36.539Z,1300
2017-10-22T09:48:47.311Z,1740
2017-10-22T09:49:57.613Z,980
2017-10-22T09:51:07.851Z,1735
2017-10-22T09:52:17.827Z,1365
2017-10-22T09:53:27.810Z,1155
2017-10-22T09:54:38.125Z,1220
2017-10-22T09:55:48.451Z,1820
2017-10-22T09:56:59.017Z,1590
2017-10-22T09:58:09.326Z,1480
2017-10-22T09:59:18.971Z,1195
2017-10-22T10:00:29.262Z,1050
2017-10-22T10:01:39.568Z,1445
2017-10-22T10:02:50.139Z,1955
2017-10-22T10:04:00.441Z,2035
2017-10-22T10:05:10.433Z,1340
2017-10-22T10:06:20.724Z,1405
2017-10-22T10:07:31.266Z,2180
2017-10-22T10:08:41.520Z,2045
2017-10-22T10:09:51.500Z,730
2017-10-22T10:11:01.821Z,2060
2017-10-22T10:12:11.824Z,2130
2017-10-22T10:13:22.141Z,690
2017-10-22T10:14:32.698Z,665
2017-10-22T10:15:43.003Z,620
2017-10-22T10:16:53.315Z,640
2017-10-22T10:18:03.302Z,620
2017-10-22T10:19:12.974Z,605
2017-10-22T10:20:23.545Z,1295
2017-10-22T10:21:33.533Z,2115
2017-10-22T10:22:43.844Z,1400
2017-10-22T10:23:53.834Z,1965
2017-10-22T10:25:04.126Z,1630
2017-10-22T10:26:14.671Z,2335
2017-10-22T10:27:24.646Z,1915
2017-10-22T10:28:34.951Z,710
2017-10-22T10:29:45.249Z,840
2017-10-22T10:30:55.551Z,1485
2017-10-22T10:32:05.813Z,1935
2017-10-22T10:33:16.130Z,650
2017-10-22T10:34:26.440Z,645
2017-10-22T10:35:36.428Z,660
2017-10-22T10:36:46.723Z,2325
2017-10-22T10:37:56.971Z,890
2017-10-22T10:39:07.269Z,2380
2017-10-22T10:40:17.603Z,610
2017-10-22T10:41:27.902Z,665
2017-10-22T10:42:38.194Z,1415
2017-10-22T10:43:48.741Z,830
2017-10-22T10:44:59.049Z,655
2017-10-22T10:46:09.800Z,465
2017-10-22T10:47:20.108Z,495
2017-10-22T10:48:30.430Z,610
2017-10-22T10:49:40.671Z,675
2017-10-22T10:50:50.979Z,645
2017-10-22T10:52:01.279Z,640
2017-10-22T10:53:10.933Z,650
2017-10-22T10:54:20.940Z,860
2017-10-22T10:55:31.208Z,845
2017-10-22T10:56:41.572Z,2320
2017-10-22T10:57:51.546Z,1500
2017-10-22T10:59:01.841Z,725
2017-10-22T11:00:12.143Z,730
2017-10-22T11:01:22.701Z,1815
2017-10-22T11:02:32.669Z,820
2017-10-22T11:03:42.987Z,895
2017-10-22T11:04:52.967Z,890
2017-10-22T11:06:03.277Z,2445
2017-10-22T11:07:13.839Z,760
2017-10-22T11:08:24.153Z,655
2017-10-22T11:09:34.454Z,595
2017-10-22T11:10:44.770Z,600
2017-10-22T11:11:54.753Z,1140
2017-10-22T11:13:04.974Z,585
2017-10-22T11:14:15.285Z,580
2017-10-22T11:15:24.616Z,515
2017-10-22T11:16:34.282Z,440
2017-10-22T11:17:44.257Z,390
2017-10-22T11:18:54.823Z,405
2017-10-22T11:20:05.155Z,450
2017-10-22T11:21:15.505Z,540
2017-10-22T11:22:25.807Z,690
2017-10-22T11:23:35.844Z,1185
2017-10-22T11:24:46.410Z,2595
2017-10-22T11:25:56.383Z,2775
2017-10-22T11:27:06.362Z,2730
2017-10-22T11:28:16.665Z,1355
2017-10-22T11:29:26.632Z,700
2017-10-22T11:30:37.267Z,685
2017-10-22T11:31:47.579Z,725
2017-10-22T11:32:57.564Z,2655
2017-10-22T11:34:07.886Z,570
2017-10-22T11:35:18.286Z,1620
2017-10-22T11:36:28.899Z,2560
2017-10-22T11:37:38.892Z,510
2017-10-22T11:38:49.198Z,455
2017-10-22T11:39:58.886Z,420
2017-10-22T11:41:08.859Z,405
2017-10-22T11:42:19.493Z,415
2017-10-22T11:43:29.804Z,390
2017-10-22T11:44:40.138Z,390
2017-10-22T11:45:50.447Z,380
2017-10-22T11:47:00.765Z,380
2017-10-22T11:48:11.321Z,395
2017-10-22T11:49:21.290Z,375
2017-10-22T11:50:31.607Z,360
2017-10-22T11:51:41.908Z,370
2017-10-22T11:52:51.881Z,380
2017-10-22T11:54:02.444Z,390
2017-10-22T11:55:12.740Z,400
2017-10-22T11:56:22.718Z,415
2017-10-22T11:57:33.032Z,410
2017-10-22T11:58:43.342Z,395
2017-10-22T11:59:53.574Z,370
2017-10-22T12:01:03.552Z,365
2017-10-22T12:02:13.861Z,390
2017-10-22T12:03:23.855Z,415
2017-10-22T12:04:34.171Z,465
2017-10-22T12:05:44.445Z,495
2017-10-22T12:06:54.741Z,530
2017-10-22T12:08:05.062Z,575
2017-10-22T12:09:15.035Z,695
2017-10-22T12:10:25.022Z,2125
2017-10-22T12:11:35.616Z,2650
2017-10-22T12:12:45.928Z,2280
2017-10-22T12:13:55.911Z,1985
2017-10-22T12:15:05.911Z,2725
2017-10-22T12:16:16.257Z,2605
2017-10-22T12:17:26.872Z,2860
2017-10-22T12:18:36.523Z,2820
2017-10-22T12:19:46.848Z,2805
2017-10-22T12:20:57.153Z,2815
2017-10-22T12:22:07.482Z,2815
2017-10-22T12:23:18.112Z,2795
2017-10-22T12:24:28.443Z,2725
2017-10-22T12:25:38.868Z,2700
2017-10-22T12:26:48.532Z,2650
2017-10-22T12:27:58.566Z,2685
2017-10-22T12:29:09.139Z,685
2017-10-22T12:30:19.121Z,705
2017-10-22T12:31:29.426Z,590
2017-10-22T12:32:39.731Z,550
2017-10-22T12:33:50.049Z,515
2017-10-22T12:35:00.608Z,470
2017-10-22T12:36:10.310Z,415
2017-10-22T12:37:20.619Z,405
2017-10-22T12:38:30.932Z,415
2017-10-22T12:39:41.256Z,420
2017-10-22T12:40:51.511Z,415
2017-10-22T12:42:01.497Z,400
2017-10-22T12:43:11.815Z,390
2017-10-22T12:44:22.127Z,385
2017-10-22T12:45:32.115Z,390
2017-10-22T12:46:42.673Z,405
2017-10-22T12:47:52.659Z,430
2017-10-22T12:49:02.964Z,465
2017-10-22T12:50:13.275Z,525
2017-10-22T12:51:23.606Z,570
2017-10-22T12:52:33.553Z,650
2017-10-22T12:53:43.855Z,690
2017-10-22T12:54:53.529Z,710
2017-10-22T12:56:03.835Z,740
2017-10-22T12:57:13.826Z,720
2017-10-22T12:58:24.054Z,700
2017-10-22T12:59:34.357Z,715
2017-10-22T13:00:44.652Z,695
2017-10-22T13:01:54.633Z,670
2017-10-22T13:03:04.930Z,665
2017-10-22T13:04:15.164Z,665
2017-10-22T13:05:24.821Z,685
2017-10-22T13:06:35.120Z,715
2017-10-22T13:07:45.113Z,775
2017-10-22T13:08:55.090Z,810
2017-10-22T13:10:05.644Z,765
2017-10-22T13:11:15.973Z,745
2017-10-22T13:12:26.286Z,680
2017-10-22T13:13:36.612Z,645
2017-10-22T13:14:46.926Z,625
2017-10-22T13:15:57.486Z,565
2017-10-22T13:17:07.460Z,545
2017-10-22T13:18:17.768Z,590
2017-10-22T13:19:28.085Z,1300
2017-10-22T13:20:38.393Z,1245
2017-10-22T13:21:47.958Z,440
2017-10-22T13:22:58.265Z,395
2017-10-22T13:24:08.265Z,370
2017-10-22T13:25:18.571Z,355
2017-10-22T13:26:28.563Z,355
2017-10-22T13:27:38.792Z,340
2017-10-22T13:28:49.101Z,320
2017-10-22T13:29:59.426Z,300
2017-10-22T13:31:09.763Z,285
2017-10-22T13:32:19.730Z,265
2017-10-22T13:33:30.297Z,250
2017-10-22T13:34:40.610Z,230
2017-10-22T13:35:50.935Z,220
2017-10-22T13:37:00.901Z,205
2017-10-22T13:38:11.211Z,200
2017-10-22T13:39:21.764Z,205
2017-10-22T13:40:31.751Z,215
2017-10-22T13:41:42.066Z,235
2017-10-22T13:42:52.050Z,280
2017-10-22T13:44:02.347Z,290
2017-10-22T13:45:12.977Z,290
2017-10-22T13:46:23.287Z,295
2017-10-22T13:47:33.584Z,295
2017-10-22T13:48:43.916Z,305
2017-10-22T13:49:54.210Z,315
2017-10-22T13:51:04.759Z,330
2017-10-22T13:52:15.097Z,345
2017-10-22T13:53:25.429Z,360
2017-10-22T13:54:35.772Z,335
2017-10-22T13:55:45.423Z,295
2017-10-22T13:56:55.977Z,250
2017-10-22T13:58:05.942Z,220
2017-10-22T13:59:16.260Z,205
2017-10-22T14:00:26.569Z,190
2017-10-22T14:01:36.558Z,185
2017-10-22T14:02:47.178Z,175
2017-10-22T14:03:57.486Z,165
2017-10-22T14:05:07.779Z,155
2017-10-22T14:06:17.749Z,145
2017-10-22T14:07:27.712Z,140
2017-10-22T14:08:38.271Z,135
2017-10-22T14:09:48.583Z,125
2017-10-22T14:10:57.896Z,115
2017-10-22T14:12:07.539Z,105
2017-10-22T14:13:17.556Z,100
2017-10-22T14:14:28.154Z,100
2017-10-22T14:15:38.133Z,105
2017-10-22T14:16:48.425Z,105
2017-10-22T14:17:58.718Z,100
2017-10-22T14:19:09.049Z,95
2017-10-22T14:20:19.610Z,90
2017-10-22T14:21:29.928Z,90
2017-10-22T14:22:40.239Z,90
2017-10-22T14:23:50.542Z,90
2017-10-22T14:25:00.512Z,95
2017-10-22T14:26:11.096Z,95
2017-10-22T14:27:21.404Z,100
2017-10-22T14:28:31.048Z,95
2017-10-22T14:29:41.346Z,95
2017-10-22T14:30:51.649Z,90
2017-10-22T14:32:02.233Z,95
2017-10-22T14:33:12.542Z,100
2017-10-22T14:34:22.853Z,105
2017-10-22T14:35:32.835Z,100
2017-10-22T14:36:43.157Z,95
2017-10-22T14:37:53.400Z,90
2017-10-22T14:39:03.391Z,80
2017-10-22T14:40:13.705Z,80
2017-10-22T14:41:24.000Z,80
2017-10-22T14:42:34.302Z,80
2017-10-22T14:43:44.548Z,85
2017-10-22T14:44:54.530Z,85
2017-10-22T14:46:04.502Z,85
2017-10-22T14:47:14.810Z,85
2017-10-22T14:48:25.125Z,80
2017-10-22T14:49:35.365Z,80
2017-10-22T14:50:45.664Z,75
2017-10-22T14:51:55.994Z,70
2017-10-22T14:53:06.311Z,60
2017-10-22T14:54:16.617Z,55
2017-10-22T14:55:27.197Z,50
2017-10-22T14:56:37.505Z,50
2017-10-22T14:57:47.478Z,55
2017-10-22T14:58:57.819Z,55
2017-10-22T15:00:08.131Z,55
2017-10-22T15:01:18.742Z,50
2017-10-22T15:02:28.731Z,50
2017-10-22T15:03:38.705Z,50
2017-10-22T15:04:48.688Z,50
2017-10-22T15:05:58.985Z,55
2017-10-22T15:07:09.557Z,55
2017-10-22T15:08:19.547Z,60
2017-10-22T15:09:29.206Z,65
2017-10-22T15:10:39.529Z,70
2017-10-22T15:11:50.010Z,70
2017-10-22T15:13:00.579Z,70
2017-10-22T15:14:10.899Z,65
2017-10-22T15:15:21.207Z,60
2017-10-22T15:16:31.211Z,55
2017-10-22T15:17:41.188Z,50
2017-10-22T15:18:51.755Z,45
2017-10-22T15:20:02.070Z,45
2017-10-22T15:21:12.376Z,40
2017-10-22T15:22:22.048Z,40
2017-10-22T15:23:32.360Z,35
2017-10-22T15:24:42.664Z,35
2017-10-22T15:25:52.969Z,35
2017-10-22T15:27:03.286Z,35
2017-10-22T15:28:13.263Z,35
2017-10-22T15:29:23.589Z,30
2017-10-22T15:30:33.828Z,30
2017-10-22T15:31:44.126Z,25
2017-10-22T15:32:54.440Z,25
2017-10-22T15:34:04.749Z,20
2017-10-22T15:35:15.052Z,20
2017-10-22T15:36:25.637Z,20
2017-10-22T15:37:35.945Z,20
2017-10-22T15:38:46.270Z,20
2017-10-22T15:39:56.574Z,20
2017-10-22T15:41:06.238Z,15
2017-10-22T15:42:16.471Z,15
2017-10-22T15:43:26.793Z,15
2017-10-22T15:44:37.097Z,10
2017-10-22T15:45:47.421Z,10
2017-10-22T15:46:57.414Z,10
2017-10-22T15:48:07.991Z,10
2017-10-22T15:49:17.959Z,10
2017-10-22T15:50:28.258Z,10
2017-10-22T15:51:38.567Z,10
2017-10-22T15:52:48.560Z,10
2017-10-22T15:53:58.811Z,10
2017-10-22T15:55:08.790Z,10
2017-10-22T15:56:19.133Z,5
2017-10-22T15:57:29.527Z,5
2017-10-22T15:58:39.833Z,5
2017-10-22T15:59:50.386Z,5
2017-10-22T16:01:00.680Z,5
2017-10-22T16:02:10.989Z,5
2017-10-22T16:03:21.289Z,5
2017-10-22T16:04:31.598Z,0
2017-10-22T16:05:41.837Z,0
2017-10-22T16:06:52.153Z,0
2017-10-22T16:08:01.831Z,0
2017-10-22T16:09:12.148Z,0
2017-10-22T16:10:22.120Z,0
2017-10-22T16:11:32.692Z,0
2017-10-22T16:12:42.686Z,0
2017-10-22T16:13:52.711Z,0
2017-10-22T16:15:03.028Z,0
2017-10-22T16:16:13.010Z,0
2017-10-22T16:17:23.237Z,0
2017-10-22T16:18:33.532Z,0
2017-10-22T16:19:43.833Z,0
2017-10-22T16:20:54.134Z,0
2017-10-22T16:22:04.430Z,0
2017-10-22T16:23:14.999Z,0
2017-10-22T16:24:24.997Z,0
2017-10-22T16:25:35.299Z,0
2017-10-22T16:26:45.269Z,0
2017-10-22T16:27:54.921Z,0
2017-10-22T16:29:05.476Z,0
2017-10-22T16:30:15.816Z,0
2017-10-22T16:31:26.132Z,0
2017-10-22T16:32:36.108Z,0
2017-10-22T16:33:46.414Z,0
2017-10-22T16:34:56.997Z,0
2017-10-22T16:36:06.680Z,0